sensor_id;sensor_type;location;lat;lon;timestamp;pressure;altitude;pressure_sealevel;temperature;humidity
56825;BME280;42705;50.326;18.772;2023-02-11T00:01:34;100116.85;;;-2.77;66.35
56825;BME280;42705;50.326;18.772;2023-02-11T00:06:56;100109.42;;;-2.71;66.42
56825;BME280;42705;50.326;18.772;2023-02-11T00:12:17;100113.20;;;-2.71;66.36
56825;BME280;42705;50.326;18.772;2023-02-11T00:17:39;100116.01;;;-2.80;66.12
56825;BME280;42705;50.326;18.772;2023-02-11T00:23:00;100105.14;;;-2.88;66.29
56825;BME280;42705;50.326;18.772;2023-02-11T00:28:21;100102.09;;;-2.90;66.60
56825;BME280;42705;50.326;18.772;2023-02-11T00:33:43;100104.48;;;-2.91;66.62
56825;BME280;42705;50.326;18.772;2023-02-11T00:39:04;100096.35;;;-2.98;66.77
56825;BME280;42705;50.326;18.772;2023-02-11T00:44:26;100081.36;;;-3.05;66.82
56825;BME280;42705;50.326;18.772;2023-02-11T00:49:47;100074.70;;;-3.07;66.98
56825;BME280;42705;50.326;18.772;2023-02-11T00:55:09;100048.89;;;-3.07;67.29
56825;BME280;42705;50.326;18.772;2023-02-11T01:00:30;100032.52;;;-3.10;67.23
56825;BME280;42705;50.326;18.772;2023-02-11T01:05:51;100031.89;;;-3.17;67.36
56825;BME280;42705;50.326;18.772;2023-02-11T01:11:16;100016.20;;;-3.19;67.64
56825;BME280;42705;50.326;18.772;2023-02-11T01:16:39;100008.32;;;-3.17;67.72
56825;BME280;42705;50.326;18.772;2023-02-11T01:22:00;100004.08;;;-3.21;67.98
56825;BME280;42705;50.326;18.772;2023-02-11T01:27:21;100008.20;;;-3.24;68.00
56825;BME280;42705;50.326;18.772;2023-02-11T01:32:42;99997.23;;;-3.19;68.20
56825;BME280;42705;50.326;18.772;2023-02-11T01:38:04;99991.19;;;-3.14;68.29
56825;BME280;42705;50.326;18.772;2023-02-11T01:43:26;99991.17;;;-3.13;68.38
56825;BME280;42705;50.326;18.772;2023-02-11T01:48:52;99976.98;;;-3.13;68.41
56825;BME280;42705;50.326;18.772;2023-02-11T01:54:19;99974.83;;;-3.03;68.48
56825;BME280;42705;50.326;18.772;2023-02-11T02:00:10;99972.79;;;-2.89;68.43
56825;BME280;42705;50.326;18.772;2023-02-11T02:06:02;99957.33;;;-2.83;68.48
56825;BME280;42705;50.326;18.772;2023-02-11T02:11:26;99940.58;;;-2.82;68.55
56825;BME280;42705;50.326;18.772;2023-02-11T02:16:47;99924.42;;;-2.78;68.37
56825;BME280;42705;50.326;18.772;2023-02-11T02:28:08;99915.83;;;-2.61;68.46
56825;BME280;42705;50.326;18.772;2023-02-11T02:33:57;99902.45;;;-2.57;68.47
56825;BME280;42705;50.326;18.772;2023-02-11T02:39:26;99895.08;;;-2.57;68.36
56825;BME280;42705;50.326;18.772;2023-02-11T02:44:50;99879.33;;;-2.56;68.18
56825;BME280;42705;50.326;18.772;2023-02-11T02:50:15;99867.09;;;-2.50;68.36
56825;BME280;42705;50.326;18.772;2023-02-11T02:55:43;99856.61;;;-2.47;68.29
56825;BME280;42705;50.326;18.772;2023-02-11T03:01:30;99856.11;;;-2.49;68.24
56825;BME280;42705;50.326;18.772;2023-02-11T03:07:21;99856.13;;;-2.50;68.29
56825;BME280;42705;50.326;18.772;2023-02-11T03:12:47;99858.44;;;-2.43;68.45
56825;BME280;42705;50.326;18.772;2023-02-11T03:18:11;99865.02;;;-2.38;68.34
56825;BME280;42705;50.326;18.772;2023-02-11T03:23:35;99848.71;;;-2.35;68.19
56825;BME280;42705;50.326;18.772;2023-02-11T03:29:15;99835.16;;;-2.33;68.20
56825;BME280;42705;50.326;18.772;2023-02-11T03:34:43;99829.98;;;-2.30;68.15
56825;BME280;42705;50.326;18.772;2023-02-11T03:40:07;99812.89;;;-2.20;67.98
56825;BME280;42705;50.326;18.772;2023-02-11T03:45:30;99804.02;;;-2.13;67.87
56825;BME280;42705;50.326;18.772;2023-02-11T03:50:52;99793.89;;;-2.12;67.78
56825;BME280;42705;50.326;18.772;2023-02-11T03:56:18;99781.60;;;-2.13;67.52
56825;BME280;42705;50.326;18.772;2023-02-11T04:01:40;99769.61;;;-2.12;67.46
56825;BME280;42705;50.326;18.772;2023-02-11T04:07:01;99761.02;;;-2.12;67.35
56825;BME280;42705;50.326;18.772;2023-02-11T04:12:22;99748.34;;;-2.10;67.32
56825;BME280;42705;50.326;18.772;2023-02-11T04:17:44;99740.33;;;-2.12;67.17
56825;BME280;42705;50.326;18.772;2023-02-11T04:23:05;99725.33;;;-2.16;67.16
56825;BME280;42705;50.326;18.772;2023-02-11T04:28:26;99720.95;;;-2.20;67.23
56825;BME280;42705;50.326;18.772;2023-02-11T04:33:49;99714.16;;;-2.14;67.12
56825;BME280;42705;50.326;18.772;2023-02-11T04:39:10;99717.16;;;-2.10;67.09
56825;BME280;42705;50.326;18.772;2023-02-11T04:44:31;99732.73;;;-2.09;67.11
56825;BME280;42705;50.326;18.772;2023-02-11T04:49:52;99735.50;;;-2.11;67.07
56825;BME280;42705;50.326;18.772;2023-02-11T04:55:13;99741.35;;;-2.12;67.02
56825;BME280;42705;50.326;18.772;2023-02-11T05:00:35;99743.35;;;-2.09;67.00
56825;BME280;42705;50.326;18.772;2023-02-11T05:05:56;99737.75;;;-2.02;67.09
56825;BME280;42705;50.326;18.772;2023-02-11T05:11:20;99729.29;;;-1.99;67.01
56825;BME280;42705;50.326;18.772;2023-02-11T05:16:41;99718.15;;;-1.98;66.95
56825;BME280;42705;50.326;18.772;2023-02-11T05:22:03;99711.67;;;-2.00;66.81
56825;BME280;42705;50.326;18.772;2023-02-11T05:27:24;99719.02;;;-1.98;66.91
56825;BME280;42705;50.326;18.772;2023-02-11T05:32:45;99732.44;;;-1.93;66.89
56825;BME280;42705;50.326;18.772;2023-02-11T05:38:06;99746.23;;;-1.88;67.04
56825;BME280;42705;50.326;18.772;2023-02-11T05:43:27;99742.77;;;-1.87;67.07
56825;BME280;42705;50.326;18.772;2023-02-11T05:48:48;99732.55;;;-1.89;66.93
56825;BME280;42705;50.326;18.772;2023-02-11T05:54:10;99713.05;;;-1.92;66.90
56825;BME280;42705;50.326;18.772;2023-02-11T05:59:31;99705.28;;;-1.88;66.99
56825;BME280;42705;50.326;18.772;2023-02-11T06:04:52;99692.05;;;-1.86;67.08
56825;BME280;42705;50.326;18.772;2023-02-11T06:10:13;99689.73;;;-1.90;67.09
56825;BME280;42705;50.326;18.772;2023-02-11T06:15:35;99683.64;;;-1.94;67.19
56825;BME280;42705;50.326;18.772;2023-02-11T06:20:56;99672.67;;;-1.94;67.47
56825;BME280;42705;50.326;18.772;2023-02-11T06:26:20;99680.00;;;-1.91;67.49
56825;BME280;42705;50.326;18.772;2023-02-11T06:31:41;99678.52;;;-1.93;67.51
56825;BME280;42705;50.326;18.772;2023-02-11T06:37:02;99672.17;;;-1.94;67.51
56825;BME280;42705;50.326;18.772;2023-02-11T06:42:24;99675.98;;;-1.87;67.70
56825;BME280;42705;50.326;18.772;2023-02-11T06:47:45;99676.94;;;-1.83;67.69
56825;BME280;42705;50.326;18.772;2023-02-11T06:53:07;99675.92;;;-1.84;67.73
56825;BME280;42705;50.326;18.772;2023-02-11T06:58:28;99679.48;;;-1.83;67.43
56825;BME280;42705;50.326;18.772;2023-02-11T07:03:49;99674.08;;;-1.79;67.66
56825;BME280;42705;50.326;18.772;2023-02-11T07:09:11;99674.88;;;-1.75;67.74
56825;BME280;42705;50.326;18.772;2023-02-11T07:14:32;99671.19;;;-1.79;67.78
56825;BME280;42705;50.326;18.772;2023-02-11T07:19:53;99667.14;;;-1.82;67.91
56825;BME280;42705;50.326;18.772;2023-02-11T07:25:14;99665.89;;;-1.80;67.90
56825;BME280;42705;50.326;18.772;2023-02-11T07:30:36;99661.86;;;-1.75;67.92
56825;BME280;42705;50.326;18.772;2023-02-11T07:35:59;99652.27;;;-1.67;68.01
56825;BME280;42705;50.326;18.772;2023-02-11T07:41:21;99644.15;;;-1.56;67.84
56825;BME280;42705;50.326;18.772;2023-02-11T07:46:43;99631.98;;;-1.41;67.83
56825;BME280;42705;50.326;18.772;2023-02-11T07:52:05;99619.74;;;-1.30;67.73
56825;BME280;42705;50.326;18.772;2023-02-11T07:57:26;99618.46;;;-1.20;67.65
56825;BME280;42705;50.326;18.772;2023-02-11T08:02:47;99613.20;;;-1.08;67.57
56825;BME280;42705;50.326;18.772;2023-02-11T08:08:09;99617.49;;;-0.87;67.39
56825;BME280;42705;50.326;18.772;2023-02-11T08:13:30;99633.34;;;-0.69;67.08
56825;BME280;42705;50.326;18.772;2023-02-11T08:18:52;99641.17;;;-0.61;66.92
56825;BME280;42705;50.326;18.772;2023-02-11T08:24:14;99645.52;;;-0.56;66.82
56825;BME280;42705;50.326;18.772;2023-02-11T08:29:35;99646.86;;;-0.48;66.49
56825;BME280;42705;50.326;18.772;2023-02-11T08:34:56;99638.67;;;-0.37;66.53
56825;BME280;42705;50.326;18.772;2023-02-11T08:40:18;99635.07;;;-0.31;66.21
56825;BME280;42705;50.326;18.772;2023-02-11T08:45:40;99631.34;;;-0.20;66.15
56825;BME280;42705;50.326;18.772;2023-02-11T08:51:08;99644.27;;;-0.09;66.04
56825;BME280;42705;50.326;18.772;2023-02-11T08:56:29;99630.59;;;0.00;65.67
56825;BME280;42705;50.326;18.772;2023-02-11T09:01:53;99621.02;;;0.16;65.32
56825;BME280;42705;50.326;18.772;2023-02-11T09:07:14;99630.12;;;0.29;65.24
56825;BME280;42705;50.326;18.772;2023-02-11T09:12:35;99636.21;;;0.32;65.18
56825;BME280;42705;50.326;18.772;2023-02-11T09:17:58;99645.34;;;0.32;64.94
56825;BME280;42705;50.326;18.772;2023-02-11T09:23:19;99654.24;;;0.38;64.83
56825;BME280;42705;50.326;18.772;2023-02-11T09:28:40;99663.52;;;0.44;64.55
56825;BME280;42705;50.326;18.772;2023-02-11T09:34:03;99670.22;;;0.39;64.49
56825;BME280;42705;50.326;18.772;2023-02-11T09:39:25;99668.58;;;0.35;64.44
56825;BME280;42705;50.326;18.772;2023-02-11T09:44:47;99655.39;;;0.40;64.44
56825;BME280;42705;50.326;18.772;2023-02-11T09:50:17;99651.69;;;0.55;64.33
56825;BME280;42705;50.326;18.772;2023-02-11T09:55:42;99645.89;;;0.69;64.15
56825;BME280;42705;50.326;18.772;2023-02-11T10:07:06;99642.56;;;0.77;63.69
56825;BME280;42705;50.326;18.772;2023-02-11T10:18:01;99605.77;;;1.03;63.73
56825;BME280;42705;50.326;18.772;2023-02-11T10:23:32;99601.93;;;1.21;63.19
56825;BME280;42705;50.326;18.772;2023-02-11T10:28:54;99561.27;;;1.22;62.75
56825;BME280;42705;50.326;18.772;2023-02-11T10:34:19;99530.23;;;1.48;62.87
56825;BME280;42705;50.326;18.772;2023-02-11T10:39:40;99509.36;;;1.77;62.85
56825;BME280;42705;50.326;18.772;2023-02-11T10:45:03;99494.82;;;1.83;62.54
56825;BME280;42705;50.326;18.772;2023-02-11T10:50:30;99478.20;;;1.81;62.37
56825;BME280;42705;50.326;18.772;2023-02-11T10:55:55;99478.61;;;1.79;62.38
56825;BME280;42705;50.326;18.772;2023-02-11T11:01:20;99485.95;;;1.85;62.61
56825;BME280;42705;50.326;18.772;2023-02-11T11:06:41;99497.83;;;1.86;62.36
56825;BME280;42705;50.326;18.772;2023-02-11T11:12:02;99491.52;;;1.84;62.83
56825;BME280;42705;50.326;18.772;2023-02-11T11:17:24;99495.91;;;1.82;62.74
56825;BME280;42705;50.326;18.772;2023-02-11T11:22:50;99487.86;;;1.80;63.12
56825;BME280;42705;50.326;18.772;2023-02-11T11:28:22;99489.15;;;1.87;63.32
56825;BME280;42705;50.326;18.772;2023-02-11T11:33:45;99485.79;;;1.90;63.03
56825;BME280;42705;50.326;18.772;2023-02-11T11:44:41;99454.23;;;1.81;63.32
56825;BME280;42705;50.326;18.772;2023-02-11T11:50:10;99464.13;;;1.84;63.25
56825;BME280;42705;50.326;18.772;2023-02-11T11:55:49;99480.33;;;1.80;63.21
56825;BME280;42705;50.326;18.772;2023-02-11T12:24:25;99506.59;;;1.59;64.24
56825;BME280;42705;50.326;18.772;2023-02-11T12:29:59;99504.75;;;1.66;64.54
56825;BME280;42705;50.326;18.772;2023-02-11T12:41:26;99470.77;;;1.63;64.84
56825;BME280;42705;50.326;18.772;2023-02-11T12:47:46;99448.62;;;1.57;66.09
56825;BME280;42705;50.326;18.772;2023-02-11T13:04:48;99416.43;;;1.47;67.72
56825;BME280;42705;50.326;18.772;2023-02-11T13:10:25;99433.81;;;1.43;68.09
56825;BME280;42705;50.326;18.772;2023-02-11T13:16:00;99413.23;;;1.41;68.70
56825;BME280;42705;50.326;18.772;2023-02-11T13:27:19;99419.08;;;1.46;69.88
56825;BME280;42705;50.326;18.772;2023-02-11T13:38:26;99349.83;;;1.52;70.91
56825;BME280;42705;50.326;18.772;2023-02-11T13:49:40;99357.45;;;1.50;72.13
56825;BME280;42705;50.326;18.772;2023-02-11T13:55:21;99363.92;;;1.47;72.61
56825;BME280;42705;50.326;18.772;2023-02-11T14:00:50;99363.73;;;1.48;73.20
56825;BME280;42705;50.326;18.772;2023-02-11T14:06:23;99377.02;;;1.48;73.25
56825;BME280;42705;50.326;18.772;2023-02-11T14:12:33;99381.94;;;1.49;73.39
56825;BME280;42705;50.326;18.772;2023-02-11T14:17:55;99378.71;;;1.57;73.16
56825;BME280;42705;50.326;18.772;2023-02-11T14:23:24;99395.58;;;1.62;73.08
56825;BME280;42705;50.326;18.772;2023-02-11T14:45:34;99405.13;;;1.68;72.47
56825;BME280;42705;50.326;18.772;2023-02-11T14:51:21;99412.77;;;1.71;72.41
56825;BME280;42705;50.326;18.772;2023-02-11T14:56:45;99410.98;;;1.73;72.37
56825;BME280;42705;50.326;18.772;2023-02-11T15:02:19;99411.55;;;1.72;72.14
56825;BME280;42705;50.326;18.772;2023-02-11T15:07:45;99422.68;;;1.73;71.94
56825;BME280;42705;50.326;18.772;2023-02-11T15:13:07;99421.83;;;1.73;71.91
56825;BME280;42705;50.326;18.772;2023-02-11T15:18:38;99423.98;;;1.71;71.74
56825;BME280;42705;50.326;18.772;2023-02-11T15:24:19;99430.48;;;1.72;71.94
56825;BME280;42705;50.326;18.772;2023-02-11T15:29:44;99434.70;;;1.70;71.62
56825;BME280;42705;50.326;18.772;2023-02-11T15:35:10;99443.17;;;1.64;72.09
56825;BME280;42705;50.326;18.772;2023-02-11T15:40:33;99445.27;;;1.64;72.38
56825;BME280;42705;50.326;18.772;2023-02-11T15:46:00;99448.83;;;1.60;72.67
56825;BME280;42705;50.326;18.772;2023-02-11T15:51:27;99454.45;;;1.53;72.72
56825;BME280;42705;50.326;18.772;2023-02-11T15:56:51;99454.86;;;1.52;73.66
56825;BME280;42705;50.326;18.772;2023-02-11T16:02:24;99460.69;;;1.47;73.70
56825;BME280;42705;50.326;18.772;2023-02-11T16:07:49;99466.00;;;1.43;74.09
56825;BME280;42705;50.326;18.772;2023-02-11T16:18:38;99472.57;;;1.38;74.65
56825;BME280;42705;50.326;18.772;2023-02-11T16:24:06;99473.27;;;1.33;74.84
56825;BME280;42705;50.326;18.772;2023-02-11T16:29:30;99477.10;;;1.27;75.20
56825;BME280;42705;50.326;18.772;2023-02-11T16:34:53;99483.86;;;1.25;75.73
56825;BME280;42705;50.326;18.772;2023-02-11T16:40:15;99485.43;;;1.25;75.85
56825;BME280;42705;50.326;18.772;2023-02-11T16:45:37;99486.98;;;1.25;76.34
56825;BME280;42705;50.326;18.772;2023-02-11T16:50:58;99486.67;;;1.28;76.44
56825;BME280;42705;50.326;18.772;2023-02-11T16:56:20;99487.44;;;1.27;76.91
56825;BME280;42705;50.326;18.772;2023-02-11T17:01:42;99488.42;;;1.28;76.85
56825;BME280;42705;50.326;18.772;2023-02-11T17:07:04;99496.67;;;1.28;77.32
56825;BME280;42705;50.326;18.772;2023-02-11T17:12:25;99492.95;;;1.31;77.40
56825;BME280;42705;50.326;18.772;2023-02-11T17:17:46;99500.72;;;1.36;77.73
56825;BME280;42705;50.326;18.772;2023-02-11T17:23:08;99503.71;;;1.38;77.84
56825;BME280;42705;50.326;18.772;2023-02-11T17:28:29;99503.45;;;1.45;78.14
56825;BME280;42705;50.326;18.772;2023-02-11T17:33:52;99506.59;;;1.49;78.19
56825;BME280;42705;50.326;18.772;2023-02-11T17:39:14;99507.57;;;1.55;78.49
56825;BME280;42705;50.326;18.772;2023-02-11T17:44:36;99507.60;;;1.64;78.84
56825;BME280;42705;50.326;18.772;2023-02-11T17:49:58;99507.30;;;1.67;78.93
56825;BME280;42705;50.326;18.772;2023-02-11T17:55:19;99504.79;;;1.75;79.09
56825;BME280;42705;50.326;18.772;2023-02-11T18:00:41;99505.91;;;1.77;79.12
56825;BME280;42705;50.326;18.772;2023-02-11T18:06:05;99514.45;;;1.79;78.90
56825;BME280;42705;50.326;18.772;2023-02-11T18:11:27;99512.15;;;1.81;79.05
56825;BME280;42705;50.326;18.772;2023-02-11T18:16:50;99512.04;;;1.79;79.19
56825;BME280;42705;50.326;18.772;2023-02-11T18:22:12;99510.85;;;1.79;79.15
56825;BME280;42705;50.326;18.772;2023-02-11T18:27:34;99511.05;;;1.78;79.35
56825;BME280;42705;50.326;18.772;2023-02-11T18:32:55;99518.14;;;1.77;79.51
56825;BME280;42705;50.326;18.772;2023-02-11T18:38:16;99520.77;;;1.80;79.86
56825;BME280;42705;50.326;18.772;2023-02-11T18:43:39;99526.38;;;1.87;80.22
56825;BME280;42705;50.326;18.772;2023-02-11T18:49:00;99526.92;;;2.00;80.18
56825;BME280;42705;50.326;18.772;2023-02-11T18:54:21;99527.04;;;2.10;80.33
56825;BME280;42705;50.326;18.772;2023-02-11T18:59:45;99530.92;;;2.21;80.01
56825;BME280;42705;50.326;18.772;2023-02-11T19:05:07;99535.80;;;2.29;80.54
56825;BME280;42705;50.326;18.772;2023-02-11T19:10:29;99535.16;;;2.36;80.46
56825;BME280;42705;50.326;18.772;2023-02-11T19:15:50;99537.80;;;2.48;80.76
56825;BME280;42705;50.326;18.772;2023-02-11T19:21:11;99549.36;;;2.61;81.09
56825;BME280;42705;50.326;18.772;2023-02-11T19:26:34;99548.81;;;2.70;81.02
56825;BME280;42705;50.326;18.772;2023-02-11T19:31:56;99557.54;;;2.80;80.84
56825;BME280;42705;50.326;18.772;2023-02-11T19:37:17;99557.90;;;2.89;80.86
56825;BME280;42705;50.326;18.772;2023-02-11T19:42:39;99561.18;;;2.93;81.11
56825;BME280;42705;50.326;18.772;2023-02-11T19:48:00;99571.50;;;2.98;80.62
56825;BME280;42705;50.326;18.772;2023-02-11T19:53:22;99567.41;;;3.05;80.78
56825;BME280;42705;50.326;18.772;2023-02-11T19:58:43;99558.33;;;3.08;81.15
56825;BME280;42705;50.326;18.772;2023-02-11T20:04:05;99562.52;;;3.10;81.18
56825;BME280;42705;50.326;18.772;2023-02-11T20:09:26;99556.84;;;3.14;81.12
56825;BME280;42705;50.326;18.772;2023-02-11T20:14:48;99558.58;;;3.14;81.30
56825;BME280;42705;50.326;18.772;2023-02-11T20:20:10;99561.93;;;3.16;80.88
56825;BME280;42705;50.326;18.772;2023-02-11T20:25:32;99561.77;;;3.19;80.86
56825;BME280;42705;50.326;18.772;2023-02-11T20:30:57;99568.26;;;3.22;80.88
56825;BME280;42705;50.326;18.772;2023-02-11T20:36:23;99579.80;;;3.22;80.89
56825;BME280;42705;50.326;18.772;2023-02-11T20:41:45;99582.09;;;3.25;80.83
56825;BME280;42705;50.326;18.772;2023-02-11T20:47:06;99591.52;;;3.31;80.96
56825;BME280;42705;50.326;18.772;2023-02-11T20:52:27;99591.33;;;3.31;80.98
56825;BME280;42705;50.326;18.772;2023-02-11T20:57:48;99602.64;;;3.37;80.84
56825;BME280;42705;50.326;18.772;2023-02-11T21:03:10;99606.46;;;3.41;81.17
56825;BME280;42705;50.326;18.772;2023-02-11T21:08:31;99606.46;;;3.41;80.71
56825;BME280;42705;50.326;18.772;2023-02-11T21:13:52;99612.09;;;3.42;80.75
56825;BME280;42705;50.326;18.772;2023-02-11T21:19:14;99617.89;;;3.45;81.03
56825;BME280;42705;50.326;18.772;2023-02-11T21:24:35;99625.61;;;3.42;80.78
56825;BME280;42705;50.326;18.772;2023-02-11T21:29:58;99621.23;;;3.43;80.91
56825;BME280;42705;50.326;18.772;2023-02-11T21:35:20;99623.70;;;3.46;81.14
56825;BME280;42705;50.326;18.772;2023-02-11T21:40:41;99632.17;;;3.50;81.02
56825;BME280;42705;50.326;18.772;2023-02-11T21:46:12;99641.88;;;3.53;80.96
56825;BME280;42705;50.326;18.772;2023-02-11T21:51:35;99653.84;;;3.52;80.92
56825;BME280;42705;50.326;18.772;2023-02-11T21:56:57;99655.88;;;3.53;80.91
56825;BME280;42705;50.326;18.772;2023-02-11T22:02:20;99656.39;;;3.53;80.95
56825;BME280;42705;50.326;18.772;2023-02-11T22:07:41;99660.48;;;3.54;81.07
56825;BME280;42705;50.326;18.772;2023-02-11T22:13:03;99663.56;;;3.59;81.01
56825;BME280;42705;50.326;18.772;2023-02-11T22:18:24;99670.36;;;3.57;80.86
56825;BME280;42705;50.326;18.772;2023-02-11T22:23:46;99672.23;;;3.58;80.79
56825;BME280;42705;50.326;18.772;2023-02-11T22:29:08;99676.48;;;3.60;81.21
56825;BME280;42705;50.326;18.772;2023-02-11T22:34:30;99684.92;;;3.60;80.98
56825;BME280;42705;50.326;18.772;2023-02-11T22:39:51;99695.73;;;3.62;80.92
56825;BME280;42705;50.326;18.772;2023-02-11T22:45:12;99704.63;;;3.61;81.02
56825;BME280;42705;50.326;18.772;2023-02-11T22:50:34;99712.18;;;3.61;81.26
56825;BME280;42705;50.326;18.772;2023-02-11T22:55:55;99715.73;;;3.67;81.15
56825;BME280;42705;50.326;18.772;2023-02-11T23:01:17;99716.09;;;3.71;81.24
56825;BME280;42705;50.326;18.772;2023-02-11T23:06:38;99725.33;;;3.73;81.17
56825;BME280;42705;50.326;18.772;2023-02-11T23:11:59;99722.68;;;3.79;81.20
56825;BME280;42705;50.326;18.772;2023-02-11T23:17:20;99724.48;;;3.82;81.28
56825;BME280;42705;50.326;18.772;2023-02-11T23:22:45;99729.20;;;3.84;81.05
56825;BME280;42705;50.326;18.772;2023-02-11T23:28:06;99728.33;;;3.88;81.12
56825;BME280;42705;50.326;18.772;2023-02-11T23:33:28;99733.06;;;3.87;81.04
56825;BME280;42705;50.326;18.772;2023-02-11T23:38:49;99742.25;;;3.86;80.97
56825;BME280;42705;50.326;18.772;2023-02-11T23:44:11;99734.27;;;3.83;81.08
56825;BME280;42705;50.326;18.772;2023-02-11T23:49:32;99732.46;;;3.81;80.90
56825;BME280;42705;50.326;18.772;2023-02-11T23:54:53;99730.02;;;3.77;80.89
